TimeCST,TemperatureF,Dew PointF,Humidity,Sea Level PressureIn,VisibilityMPH,Wind Direction,Wind SpeedMPH,Gust SpeedMPH,PrecipitationIn,Events,Conditions,WindDirDegrees,DateUTC
12:53 AM,48.9,41.0,74,30.29,10.0,SE,6.9,-,N/A,,Clear,140,2013-02-17 06:53:00
1:53 AM,50.0,42.1,74,30.27,10.0,SE,4.6,-,N/A,,Clear,130,2013-02-17 07:53:00
2:53 AM,50.0,43.0,77,30.25,10.0,South,4.6,-,N/A,,Clear,180,2013-02-17 08:53:00
3:53 AM,48.0,41.0,77,30.23,10.0,SSE,3.5,-,N/A,,Clear,150,2013-02-17 09:53:00
4:53 AM,50.0,44.1,80,30.22,10.0,SSE,4.6,-,N/A,,Clear,160,2013-02-17 10:53:00
5:53 AM,51.1,44.1,77,30.22,10.0,SSE,5.8,-,N/A,,Clear,160,2013-02-17 11:53:00
6:53 AM,52.0,45.0,77,30.22,10.0,SE,4.6,-,N/A,,Clear,140,2013-02-17 12:53:00
7:53 AM,57.9,48.9,72,30.22,10.0,SE,6.9,-,N/A,,Clear,140,2013-02-17 13:53:00
8:53 AM,68.0,48.9,50,30.23,9.0,SSE,16.1,-,N/A,,Scattered Clouds,150,2013-02-17 14:53:00
9:53 AM,71.1,48.0,44,30.22,8.0,SSE,18.4,28.8,N/A,,Clear,150,2013-02-17 15:53:00
10:53 AM,73.0,48.0,41,30.22,7.0,SE,24.2,32.2,N/A,,Partly Cloudy,140,2013-02-17 16:53:00
11:53 AM,73.9,48.9,41,30.18,6.0,SSE,24.2,31.1,N/A,,Haze,150,2013-02-17 17:53:00
12:53 PM,72.0,50.0,46,30.14,7.0,SE,21.9,32.2,N/A,,Overcast,140,2013-02-17 18:53:00
1:53 PM,70.0,50.0,49,30.12,8.0,SE,25.3,32.2,N/A,,Overcast,140,2013-02-17 19:53:00
2:53 PM,70.0,51.1,51,30.09,8.0,SSE,23.0,33.4,N/A,,Overcast,150,2013-02-17 20:53:00
3:53 PM,70.0,52.0,53,30.07,9.0,SSE,23.0,28.8,N/A,,Overcast,150,2013-02-17 21:53:00
4:53 PM,69.1,53.1,57,30.06,9.0,SSE,18.4,31.1,N/A,,Overcast,150,2013-02-17 22:53:00
5:53 PM,69.1,54.0,58,30.05,9.0,SSE,19.6,-,N/A,,Overcast,150,2013-02-17 23:53:00
6:53 PM,68.0,55.0,63,30.04,10.0,SSE,19.6,28.8,N/A,,Overcast,150,2013-02-18 00:53:00
7:53 PM,69.1,55.0,61,30.05,10.0,SSE,19.6,25.3,N/A,,Overcast,150,2013-02-18 01:53:00
8:53 PM,69.1,55.9,63,30.05,9.0,SSE,18.4,27.6,N/A,,Overcast,150,2013-02-18 02:53:00
9:53 PM,69.1,57.0,65,30.04,9.0,SSE,16.1,24.2,N/A,,Overcast,150,2013-02-18 03:53:00
11:53 PM,69.1,57.9,68,30.02,9.0,SSE,19.6,-,N/A,,Overcast,150,2013-02-18 05:53:00